createdAt,value
2023-03-30T00:00:01.745Z,11.85
2023-03-30T00:05:43.337Z,10.00
2023-03-30T00:08:33.586Z,9.88
2023-03-30T00:11:23.510Z,7.28
2023-03-30T00:14:12.264Z,7.40
2023-03-30T00:17:00.124Z,5.85
2023-03-30T00:19:48.737Z,5.18
2023-03-30T00:22:36.763Z,5.28
2023-03-30T00:25:24.749Z,4.82
2023-03-30T00:28:12.494Z,5.05
2023-03-30T00:31:00.364Z,3.08
2023-03-30T00:34:01.382Z,3.88
2023-03-30T00:36:49.409Z,4.50
2023-03-30T00:39:37.082Z,5.07
2023-03-30T00:42:25.327Z,5.97
2023-03-30T00:45:24.626Z,4.53
2023-03-30T00:48:32.319Z,5.88
2023-03-30T00:51:20.206Z,6.65
2023-03-30T00:54:13.737Z,6.77
2023-03-30T00:57:02.951Z,6.32
2023-03-30T00:59:52.548Z,5.40
2023-03-30T01:02:57.413Z,4.67
2023-03-30T01:05:45.754Z,3.80
2023-03-30T01:08:34.997Z,5.20
2023-03-30T01:11:22.830Z,4.28
2023-03-30T01:14:12.890Z,4.97
2023-03-30T01:17:15.540Z,5.18
2023-03-30T01:20:22.782Z,2.30
2023-03-30T01:23:47.314Z,2.78
2023-03-30T01:26:43.210Z,1.85
2023-03-30T01:29:39.757Z,2.00
2023-03-30T01:32:50.140Z,2.50
2023-03-30T01:35:53.285Z,7.75
2023-03-30T01:39:14.712Z,6.57
2023-03-30T01:42:17.381Z,8.37
2023-03-30T01:45:19.919Z,6.13
2023-03-30T01:48:29.574Z,6.37
2023-03-30T01:51:24.281Z,4.50
2023-03-30T01:54:21.191Z,5.93
2023-03-30T01:57:29.033Z,4.53
2023-03-30T02:00:21.454Z,3.53
2023-03-30T02:03:17.698Z,3.72
2023-03-30T02:06:17.749Z,3.23
2023-03-30T02:09:10.754Z,1.83
2023-03-30T02:12:00.992Z,4.17
2023-03-30T02:14:49.972Z,3.57
2023-03-30T02:17:38.553Z,3.45
2023-03-30T02:20:28.980Z,3.33
2023-03-30T02:23:21.418Z,3.23
2023-03-30T02:26:09.982Z,3.77
2023-03-30T02:28:59.210Z,4.43
2023-03-30T02:31:51.402Z,3.77
2023-03-30T02:35:09.223Z,8.23
2023-03-30T02:38:18.862Z,6.97
2023-03-30T02:41:28.627Z,4.57
2023-03-30T02:44:48.426Z,5.27
2023-03-30T02:47:54.739Z,5.80
2023-03-30T02:51:06.419Z,7.70
2023-03-30T02:54:58.950Z,7.67
2023-03-30T02:58:08.430Z,8.67
2023-03-30T03:01:20.145Z,8.90
2023-03-30T03:04:19.161Z,9.90
2023-03-30T03:07:28.130Z,7.70
2023-03-30T03:10:15.987Z,8.20
2023-03-30T03:13:03.902Z,6.83
2023-03-30T03:15:56.512Z,6.17
2023-03-30T03:18:46.226Z,5.87
2023-03-30T03:21:34.024Z,5.13
2023-03-30T03:24:21.976Z,6.07
2023-03-30T03:27:28.536Z,5.63
2023-03-30T03:30:36.424Z,5.77
2023-03-30T03:33:32.240Z,6.17
2023-03-30T03:36:28.977Z,8.77
2023-03-30T03:39:16.603Z,7.60
2023-03-30T03:42:05.410Z,5.80
2023-03-30T03:44:54.731Z,7.47
2023-03-30T03:47:42.533Z,4.80
2023-03-30T03:50:30.769Z,4.33
2023-03-30T03:53:18.979Z,8.13
2023-03-30T03:56:07.774Z,6.87
2023-03-30T03:58:55.599Z,4.83
2023-03-30T04:01:43.354Z,5.33
2023-03-30T04:04:31.472Z,4.60
2023-03-30T04:07:19.788Z,12.70
2023-03-30T04:10:08.222Z,8.33
2023-03-30T04:13:07.745Z,6.90
2023-03-30T04:16:28.784Z,7.55
2023-03-30T04:19:42.605Z,6.97
2023-03-30T04:22:53.654Z,6.93
2023-03-30T04:25:41.363Z,7.77
2023-03-30T04:29:03.448Z,6.43
2023-03-30T04:32:21.238Z,6.13
2023-03-30T04:35:19.435Z,4.73
2023-03-30T04:38:25.712Z,5.80
2023-03-30T04:41:33.656Z,6.37
2023-03-30T04:44:32.747Z,5.50
2023-03-30T04:47:40.279Z,5.37
2023-03-30T04:50:48.274Z,7.03
2023-03-30T04:54:02.582Z,8.03
2023-03-30T04:57:08.877Z,9.80
2023-03-30T05:00:24.302Z,16.87
2023-03-30T05:03:12.574Z,12.90
2023-03-30T05:06:09.295Z,8.00
2023-03-30T05:09:17.580Z,7.43
2023-03-30T05:12:28.187Z,6.53
2023-03-30T05:15:40.028Z,4.40
2023-03-30T05:18:46.138Z,3.85
2023-03-30T05:21:41.748Z,2.45
2023-03-30T05:24:35.355Z,4.13
2023-03-30T05:27:23.041Z,33.63
2023-03-30T05:30:29.067Z,9.75
2023-03-30T05:33:37.791Z,28.88
2023-03-30T05:36:44.175Z,8.65
2023-03-30T05:39:57.896Z,5.22
2023-03-30T05:43:01.805Z,4.43
2023-03-30T05:46:25.030Z,16.92
2023-03-30T05:49:21.932Z,6.55
2023-03-30T05:52:29.883Z,9.32
2023-03-30T05:55:32.061Z,9.80
2023-03-30T05:58:52.369Z,5.15
2023-03-30T06:02:20.034Z,3.92
2023-03-30T06:05:12.785Z,5.20
2023-03-30T06:08:02.424Z,7.75
2023-03-30T06:10:55.183Z,6.70
2023-03-30T06:13:44.602Z,5.43
2023-03-30T06:16:34.820Z,10.85
2023-03-30T06:19:23.483Z,5.60
2023-03-30T06:22:11.703Z,5.40
2023-03-30T06:25:13.903Z,3.17
2023-03-30T06:28:02.747Z,2.72
2023-03-30T06:30:51.053Z,2.65
2023-03-30T06:33:42.385Z,3.13
2023-03-30T06:36:44.260Z,2.80
2023-03-30T06:39:40.025Z,2.35
2023-03-30T06:42:28.149Z,2.10
2023-03-30T06:45:33.023Z,1.38
2023-03-30T06:48:24.165Z,1.88
2023-03-30T06:51:29.864Z,1.08
2023-03-30T06:54:20.860Z,2.63
2023-03-30T06:57:16.073Z,2.50
2023-03-30T07:00:13.628Z,3.53
2023-03-30T07:03:01.636Z,2.40
2023-03-30T07:05:55.864Z,2.10
2023-03-30T07:08:55.271Z,2.53
2023-03-30T07:11:45.899Z,2.35
2023-03-30T07:14:34.114Z,2.20
2023-03-30T07:17:26.467Z,1.85
2023-03-30T07:23:23.421Z,2.13
2023-03-30T07:26:13.278Z,1.42
2023-03-30T07:29:15.822Z,2.20
2023-03-30T07:32:08.470Z,1.25
2023-03-30T07:34:56.414Z,2.20
2023-03-30T07:37:50.443Z,2.58
2023-03-30T07:40:39.330Z,1.17
2023-03-30T07:43:27.662Z,1.80
2023-03-30T07:46:17.293Z,2.15
2023-03-30T07:49:08.491Z,1.50
2023-03-30T07:51:57.128Z,1.58
2023-03-30T07:54:50.145Z,1.85
2023-03-30T07:57:41.034Z,0.80
2023-03-30T08:00:29.481Z,0.77
2023-03-30T08:03:37.693Z,0.77
2023-03-30T08:06:27.423Z,1.15
2023-03-30T08:09:18.900Z,1.00
2023-03-30T08:12:08.118Z,0.70
2023-03-30T08:14:58.697Z,1.15
2023-03-30T08:17:46.502Z,0.77
2023-03-30T08:20:36.732Z,0.82
2023-03-30T08:23:24.524Z,1.10
2023-03-30T08:26:12.331Z,0.65
2023-03-30T08:29:00.039Z,1.17
2023-03-30T08:31:47.963Z,0.93
2023-03-30T08:34:37.316Z,0.98
2023-03-30T08:37:25.295Z,0.75
2023-03-30T08:40:14.685Z,0.82
2023-03-30T08:43:21.880Z,0.88
2023-03-30T08:46:16.350Z,0.75
2023-03-30T08:49:08.978Z,0.90
2023-03-30T08:51:57.374Z,0.95
2023-03-30T08:54:45.141Z,1.25
2023-03-30T08:57:44.295Z,0.80
2023-03-30T09:00:45.362Z,1.00
2023-03-30T09:03:45.657Z,0.68
2023-03-30T09:06:53.151Z,0.70
2023-03-30T09:09:47.232Z,1.13
2023-03-30T09:12:41.964Z,1.63
2023-03-30T09:15:52.903Z,1.45
2023-03-30T09:18:43.718Z,0.77
2023-03-30T09:21:32.413Z,1.08
2023-03-30T09:24:25.963Z,0.75
2023-03-30T09:27:25.538Z,0.50
2023-03-30T09:30:23.168Z,0.52
2023-03-30T09:33:35.881Z,0.80
2023-03-30T09:36:35.830Z,1.10
2023-03-30T09:39:29.597Z,0.77
2023-03-30T09:42:59.773Z,0.95
2023-03-30T09:45:47.670Z,1.10
2023-03-30T09:48:48.909Z,1.40
2023-03-30T09:51:37.029Z,1.10
2023-03-30T09:54:36.978Z,1.02
2023-03-30T09:57:31.401Z,0.85
2023-03-30T10:00:34.406Z,0.70
2023-03-30T10:03:24.189Z,0.60
2023-03-30T10:06:13.490Z,1.02
2023-03-30T10:09:07.281Z,0.60
2023-03-30T10:11:55.859Z,0.77
2023-03-30T10:14:44.039Z,0.98
2023-03-30T10:17:32.369Z,1.10
2023-03-30T10:20:31.010Z,0.70
2023-03-30T10:23:22.339Z,0.80
2023-03-30T10:26:19.398Z,0.60
2023-03-30T10:29:12.359Z,0.80
2023-03-30T10:32:04.484Z,0.68
2023-03-30T10:34:55.383Z,0.45
2023-03-30T10:37:47.227Z,0.52
2023-03-30T10:40:38.189Z,0.88
2023-03-30T10:43:32.216Z,0.63
2023-03-30T10:46:23.512Z,1.45
2023-03-30T10:49:43.672Z,0.40
2023-03-30T10:52:59.077Z,0.70
2023-03-30T10:56:13.192Z,0.55
2023-03-30T10:59:41.625Z,0.47
2023-03-30T11:02:59.948Z,0.55
2023-03-30T11:05:52.893Z,0.45
2023-03-30T11:08:45.538Z,0.13
2023-03-30T11:11:49.588Z,0.10
2023-03-30T11:14:48.261Z,0.65
2023-03-30T11:17:49.236Z,0.20
2023-03-30T11:20:47.910Z,0.50
2023-03-30T11:23:50.449Z,0.40
2023-03-30T11:26:43.694Z,0.40
2023-03-30T11:29:38.977Z,0.30
2023-03-30T11:32:45.132Z,0.60
2023-03-30T11:36:05.606Z,0.52
2023-03-30T11:39:08.427Z,0.30
2023-03-30T11:42:13.073Z,0.40
2023-03-30T11:45:02.969Z,0.28
2023-03-30T11:48:02.726Z,0.20
2023-03-30T11:51:23.788Z,0.22
2023-03-30T11:55:02.905Z,0.30
2023-03-30T11:58:15.042Z,0.22
2023-03-30T12:01:31.015Z,0.20
2023-03-30T12:04:31.735Z,0.50
2023-03-30T12:07:38.946Z,0.20
2023-03-30T12:10:39.680Z,0.30
2023-03-30T12:13:38.101Z,0.28
2023-03-30T12:16:44.998Z,0.28
2023-03-30T12:19:55.517Z,0.55
2023-03-30T12:23:19.242Z,0.30
2023-03-30T12:29:58.543Z,0.10
2023-03-30T12:32:31.561Z,0.10
2023-03-30T12:35:51.389Z,0.30
2023-03-30T12:38:43.784Z,0.20
2023-03-30T12:41:48.991Z,0.10
2023-03-30T12:45:07.155Z,0.15
2023-03-30T12:48:26.572Z,0.13
2023-03-30T12:51:37.065Z,0.52
2023-03-30T12:55:06.396Z,0.10
2023-03-30T12:58:14.950Z,0.40
2023-03-30T13:01:20.827Z,0.10
2023-03-30T13:04:23.823Z,0.00
2023-03-30T13:07:22.203Z,0.10
2023-03-30T13:10:31.995Z,0.10
2023-03-30T13:13:50.539Z,0.00
2023-03-30T13:16:53.502Z,0.10
2023-03-30T13:19:48.680Z,0.10
2023-03-30T13:22:36.597Z,0.10
2023-03-30T13:25:50.018Z,0.20
2023-03-30T13:28:37.733Z,0.10
2023-03-30T13:31:31.151Z,0.32
2023-03-30T13:34:31.843Z,0.10
2023-03-30T13:37:32.744Z,0.10
2023-03-30T13:40:39.648Z,0.30
2023-03-30T13:44:03.523Z,0.20
2023-03-30T13:47:18.783Z,0.35
2023-03-30T13:50:13.244Z,0.10
2023-03-30T13:53:11.103Z,0.20
2023-03-30T13:55:59.331Z,0.10
2023-03-30T13:59:11.955Z,0.70
2023-03-30T14:02:02.103Z,0.20
2023-03-30T14:04:50.722Z,0.17
2023-03-30T14:07:43.640Z,0.00
2023-03-30T14:10:31.339Z,0.00
2023-03-30T14:13:21.794Z,0.03
2023-03-30T14:16:19.075Z,0.10
2023-03-30T14:19:09.702Z,0.10
2023-03-30T14:22:09.568Z,0.32
2023-03-30T14:25:03.682Z,0.05
2023-03-30T14:27:51.366Z,0.10
2023-03-30T14:30:39.177Z,0.00
2023-03-30T14:33:27.021Z,0.63
2023-03-30T14:36:17.862Z,0.40
2023-03-30T14:39:09.855Z,0.25
2023-03-30T14:42:06.220Z,0.40
2023-03-30T14:44:57.348Z,0.30
2023-03-30T14:47:48.203Z,0.27
2023-03-30T14:50:37.467Z,0.10
2023-03-30T14:53:29.598Z,0.20
2023-03-30T14:59:13.266Z,0.10
2023-03-30T15:02:02.480Z,0.03
2023-03-30T15:04:51.355Z,0.10
2023-03-30T15:07:40.133Z,0.10
2023-03-30T15:10:50.842Z,0.20
2023-03-30T15:13:47.021Z,0.40
2023-03-30T15:16:36.770Z,0.00
2023-03-30T15:19:33.122Z,0.20
2023-03-30T15:22:33.274Z,0.45
2023-03-30T15:25:34.091Z,0.32
2023-03-30T15:28:22.440Z,0.08
2023-03-30T15:31:13.982Z,0.22
2023-03-30T15:34:02.153Z,0.10
2023-03-30T15:36:54.776Z,1.55
2023-03-30T15:39:49.413Z,0.15
2023-03-30T15:42:37.204Z,1.25
2023-03-30T15:45:24.938Z,4.28
2023-03-30T15:48:12.910Z,2.97
2023-03-30T15:51:24.229Z,14.90
2023-03-30T15:54:16.052Z,19.95
2023-03-30T15:57:20.973Z,15.48
2023-03-30T16:00:17.650Z,7.57
2023-03-30T16:03:08.082Z,8.45
2023-03-30T16:05:57.126Z,6.20
2023-03-30T16:08:47.866Z,5.45
2023-03-30T16:11:36.580Z,4.00
2023-03-30T16:14:24.508Z,2.40
2023-03-30T16:17:15.788Z,1.27
2023-03-30T16:20:14.347Z,0.90
2023-03-30T16:23:01.985Z,1.50
2023-03-30T16:26:10.553Z,1.73
2023-03-30T16:28:58.388Z,1.52
2023-03-30T16:31:46.212Z,2.25
2023-03-30T16:34:34.032Z,3.35
2023-03-30T16:37:22.653Z,3.40
2023-03-30T16:40:36.452Z,1.88
2023-03-30T16:43:25.301Z,6.45
2023-03-30T16:46:17.987Z,2.35
2023-03-30T16:49:17.835Z,1.80
2023-03-30T16:52:10.107Z,8.15
2023-03-30T16:54:57.711Z,14.57
2023-03-30T16:57:45.916Z,9.50
2023-03-30T17:00:38.734Z,59.80
2023-03-30T17:03:26.661Z,25.85
2023-03-30T17:06:16.480Z,19.38
2023-03-30T17:09:04.227Z,11.85
2023-03-30T17:11:51.893Z,16.75
2023-03-30T17:14:42.597Z,14.45
2023-03-30T17:17:32.913Z,10.85
2023-03-30T17:20:33.400Z,8.07
2023-03-30T17:23:25.967Z,8.65
2023-03-30T17:26:14.764Z,10.38
2023-03-30T17:29:03.744Z,8.95
2023-03-30T17:31:54.291Z,6.78
2023-03-30T17:34:41.902Z,10.27
2023-03-30T17:37:29.697Z,3.83
2023-03-30T17:40:24.307Z,5.30
2023-03-30T17:43:12.219Z,3.25
2023-03-30T17:46:00.002Z,5.22
2023-03-30T17:48:48.274Z,8.93
2023-03-30T17:51:35.892Z,6.25
2023-03-30T17:54:24.244Z,4.85
2023-03-30T17:57:12.073Z,4.50
2023-03-30T18:00:02.270Z,3.78
2023-03-30T18:02:53.507Z,4.40
2023-03-30T18:05:41.716Z,3.58
2023-03-30T18:08:29.927Z,2.50
2023-03-30T18:11:17.673Z,1.88
2023-03-30T18:14:05.660Z,1.98
2023-03-30T18:17:05.609Z,1.75
2023-03-30T18:19:54.293Z,1.80
2023-03-30T18:22:35.674Z,2.03
2023-03-30T18:25:31.930Z,1.55
2023-03-30T18:28:25.811Z,3.45
2023-03-30T18:31:18.466Z,2.83
2023-03-30T18:34:06.318Z,2.78
2023-03-30T18:36:53.900Z,2.63
2023-03-30T18:39:43.796Z,2.50
2023-03-30T18:42:31.396Z,1.58
2023-03-30T18:45:23.837Z,1.40
2023-03-30T18:48:14.199Z,1.70
2023-03-30T18:51:01.952Z,1.13
2023-03-30T18:53:49.552Z,2.25
2023-03-30T18:56:41.180Z,2.95
2023-03-30T18:59:28.997Z,3.78
2023-03-30T19:02:16.784Z,1.77
2023-03-30T19:05:04.726Z,1.80
2023-03-30T19:07:52.943Z,2.05
2023-03-30T19:10:42.277Z,1.55
2023-03-30T19:13:29.908Z,1.70
2023-03-30T19:16:18.957Z,1.48
2023-03-30T19:19:09.935Z,3.85
2023-03-30T19:21:59.078Z,4.28
2023-03-30T19:24:46.909Z,4.82
2023-03-30T19:27:34.618Z,3.30
2023-03-30T19:30:23.078Z,2.72
2023-03-30T19:33:15.439Z,2.38
2023-03-30T19:36:03.286Z,1.85
2023-03-30T19:38:51.008Z,2.20
2023-03-30T19:41:38.723Z,2.85
2023-03-30T19:44:26.376Z,2.90
2023-03-30T19:47:14.147Z,2.80
2023-03-30T19:50:11.485Z,2.22
2023-03-30T19:52:59.762Z,1.60
2023-03-30T19:55:47.385Z,1.73
2023-03-30T19:58:35.048Z,4.95
2023-03-30T20:01:23.153Z,19.05
2023-03-30T20:04:11.188Z,3.55
2023-03-30T20:07:00.712Z,1.30
2023-03-30T20:09:48.526Z,1.10
2023-03-30T20:12:36.382Z,1.88
2023-03-30T20:15:28.724Z,2.40
2023-03-30T20:18:18.610Z,4.82
2023-03-30T20:21:07.024Z,1.52
2023-03-30T20:23:58.814Z,0.85
2023-03-30T20:26:46.541Z,0.77
2023-03-30T20:29:34.235Z,1.05
2023-03-30T20:32:22.204Z,0.93
2023-03-30T20:35:10.107Z,0.68
2023-03-30T20:37:57.966Z,1.48
2023-03-30T20:41:00.128Z,2.65
2023-03-30T20:43:56.816Z,2.10
2023-03-30T20:46:45.552Z,2.35
2023-03-30T20:49:33.803Z,1.95
2023-03-30T20:52:22.673Z,2.08
2023-03-30T20:55:10.680Z,3.45
2023-03-30T20:57:58.385Z,1.75
2023-03-30T21:00:47.721Z,2.05
2023-03-30T21:03:35.558Z,1.02
2023-03-30T21:06:24.077Z,0.93
2023-03-30T21:09:11.891Z,1.73
2023-03-30T21:11:59.633Z,1.88
2023-03-30T21:14:47.567Z,1.60
2023-03-30T21:17:35.297Z,3.17
2023-03-30T21:20:23.019Z,4.90
2023-03-30T21:23:11.648Z,4.65
2023-03-30T21:26:04.596Z,5.68
2023-03-30T21:28:52.744Z,6.47
2023-03-30T21:31:40.426Z,5.25
2023-03-30T21:34:28.266Z,3.47
2023-03-30T21:37:16.595Z,2.47
2023-03-30T21:40:08.897Z,2.22
2023-03-30T21:45:44.213Z,2.35
2023-03-30T21:48:34.467Z,2.53
2023-03-30T21:51:24.994Z,2.35
2023-03-30T21:54:16.190Z,2.25
2023-03-30T21:57:09.323Z,3.00
2023-03-30T21:59:57.068Z,2.83
2023-03-30T22:02:44.812Z,2.35
2023-03-30T22:05:32.519Z,3.85
2023-03-30T22:08:20.225Z,2.40
2023-03-30T22:11:16.815Z,2.08
2023-03-30T22:14:04.636Z,1.10
2023-03-30T22:16:52.309Z,1.38
2023-03-30T22:19:40.798Z,1.98
2023-03-30T22:22:28.877Z,1.45
2023-03-30T22:25:18.061Z,1.83
2023-03-30T22:28:05.910Z,1.00
2023-03-30T22:30:53.618Z,1.45
2023-03-30T22:33:41.734Z,0.80
2023-03-30T22:36:31.325Z,1.83
2023-03-30T22:39:19.378Z,1.38
2023-03-30T22:42:07.259Z,1.92
2023-03-30T22:44:54.973Z,1.88
2023-03-30T22:47:42.807Z,1.65
2023-03-30T22:50:30.722Z,1.42
2023-03-30T22:53:18.631Z,1.48
2023-03-30T22:56:07.979Z,1.98
2023-03-30T22:58:56.331Z,1.15
2023-03-30T23:01:44.169Z,1.55
2023-03-30T23:04:32.034Z,1.38
2023-03-30T23:07:19.686Z,2.65
2023-03-30T23:10:08.325Z,2.33
2023-03-30T23:12:58.024Z,1.15
2023-03-30T23:15:48.844Z,1.90
2023-03-30T23:18:36.922Z,0.90
2023-03-30T23:21:24.889Z,1.52
2023-03-30T23:24:12.545Z,1.17
2023-03-30T23:27:00.401Z,1.80
2023-03-30T23:29:48.026Z,2.38
2023-03-30T23:32:36.060Z,3.35
2023-03-30T23:35:24.104Z,3.40
2023-03-30T23:38:11.871Z,3.95
2023-03-30T23:41:00.490Z,3.85
2023-03-30T23:43:48.736Z,3.22
2023-03-30T23:46:36.513Z,3.58
2023-03-30T23:49:24.488Z,2.88
2023-03-30T23:52:12.226Z,3.00
2023-03-30T23:55:02.157Z,2.65
2023-03-30T23:57:49.691Z,2.55
